الكل
Fisher County Airport (Rotan/Roby, TX) 56F حالة الطقس
There is no TAF data available at 56F or any nearby airports.
There is no METAR data available at 56F. Showing METAR data for KSWW (25 mi جنوب).
محفوظات أحدث تقرير روتيني عن حالة الطقس من أجل الطيران (الميتار) SWW ( لا توجد بيانات لـ56F)
| Date | Time (CDT) | Flight Rules | Wind Dir. | Speed | Type | Height AGL (ft) | Visibility | Temp (°C) | Temp (°F) | Dew Point (°C) | Dew Point (°F) | Rel. Humid. | Pressure | Density Altitude | Remarks |
|---|---|---|---|---|---|---|---|---|---|---|---|---|---|---|---|
| 04-سبت | 17:15 | VFR | 150° | 11 kt | 10 miles | 26° | 78° | 20° | 68° | 67% | 29.91 in Hg | 4,184 ft | |||
| 04-سبت | 16:55 | VFR | 140° | 11 kt | 10 miles |
26° | 78° | 21° | 69° | 73% | 29.93 in Hg | 4,164 ft | Thunderstorms, Wind gusting to 21 KT | ||
| 04-سبت | 16:15 | MVFR | 100° | 15 kt | 4 miles |
25° | 77° | 20° | 68° | 71% | 29.93 in Hg | 4,044 ft | Wind gusting to 19 KT | ||
| 04-سبت | 15:55 | VFR | 110° | 20 kt | 7 miles |
33° | 91° | 20° | 68° | 46% | 29.93 in Hg | 5,004 ft | Wind gusting to 27 KT | ||
| 04-سبت | 15:35 | VFR | 50° | 3 kt | 10 miles | 42° | 107° | 14° | 57° | 20% | 29.93 in Hg | 6,084 ft | |||
| 04-سبت | 15:15 | VFR | 240° | 5 kt | 10 miles | 42° | 107° | 16° | 60° | 22% | 29.94 in Hg | 6,074 ft | |||
| 04-سبت | 14:55 | VFR | 230° | 7 kt | 10 miles | 41° | 105° | 16° | 60° | 24% | 29.95 in Hg | 5,944 ft | |||
| 04-سبت | 14:35 | VFR | Calm | 10 miles | 40° | 104° | 17° | 62° | 26% | 29.96 in Hg | 5,814 ft | ||||
| 04-سبت | 14:15 | VFR | 250° | 5 kt | 10 miles | 37° | 98° | 17° | 62° | 30% | 29.97 in Hg | 5,444 ft | |||
| 04-سبت | 13:55 | VFR | 220° | 7 kt | 10 miles | 38° | 100° | 16° | 60° | 28% | 29.98 in Hg | 5,554 ft | |||
| 04-سبت | 13:35 | VFR | 250° | 5 kt | 10 miles | 38° | 100° | 17° | 62° | 29% | 29.98 in Hg | 5,554 ft | |||
| 04-سبت | 13:15 | VFR | 200° | 8 kt | 10 miles | 37° | 98° | 17° | 62° | 31% | 29.99 in Hg | 5,424 ft | |||
| 04-سبت | 12:55 | VFR | 210° | 11 kt | 10 miles | 37° | 98° | 18° | 64° | 33% | 30.00 in Hg | 5,414 ft | |||
| 04-سبت | 12:15 | VFR | 190° | 8 kt | 10 miles | 35° | 95° | 18° | 64° | 37% | 30.01 in Hg | 5,164 ft | |||
| 04-سبت | 11:55 | VFR | 220° | 6 kt | 10 miles | 34° | 93° | 18° | 64° | 39% | 30.02 in Hg | 5,034 ft | Wind gusting to 9 KT | ||
| 04-سبت | 11:35 | VFR | 210° | 10 kt | 10 miles | 34° | 93° | 18° | 64° | 40% | 30.02 in Hg | 5,034 ft | Wind gusting to 14 KT | ||
| 04-سبت | 11:15 | VFR | 190° | 11 kt | 10 miles | 33° | 91° | 19° | 66° | 42% | 30.02 in Hg | 4,914 ft | Wind gusting to 14 KT | ||
| 04-سبت | 10:55 | VFR | 200° | 8 kt | 10 miles | 33° | 91° | 19° | 66° | 44% | 30.02 in Hg | 4,914 ft | |||
| 04-سبت | 10:35 | VFR | 220° | 7 kt | 10 miles | 31° | 87° | 19° | 66° | 47% | 30.02 in Hg | 4,674 ft | |||
| 04-سبت | 10:15 | VFR | 210° | 10 kt | 10 miles | 31° | 87° | 19° | 66° | 49% | 30.02 in Hg | 4,674 ft | |||
| 04-سبت | 09:55 | VFR | 210° | 10 kt | 10 miles | 31° | 87° | 19° | 66° | 52% | 30.02 in Hg | 4,674 ft | |||
| 04-سبت | 09:35 | VFR | 200° | 8 kt | 10 miles | 30° | 86° | 19° | 66° | 54% | 30.01 in Hg | 4,564 ft | |||
| 04-سبت | 09:15 | VFR | 180° | 11 kt | 10 miles | 29° | 84° | 19° | 66° | 56% | 30.01 in Hg | 4,444 ft | Wind gusting to 15 KT | ||
| 04-سبت | 08:55 | VFR | 200° | 11 kt | 10 miles | 29° | 84° | 19° | 66° | 56% | 30.00 in Hg | 4,454 ft | Wind gusting to 16 KT |
تسجيل الدخول
| مُتصفحك غير مُدعَّم. قم بترقية متصفحك |
